sensor_id;sensor_type;location;lat;lon;timestamp;P1;durP1;ratioP1;P2;durP2;ratioP2
31652;SDS011;18261;53.648;9.910;2022-12-29T00:01:39;6.38;;;3.80;;
31652;SDS011;18261;53.648;9.910;2022-12-29T00:04:05;8.73;;;4.28;;
31652;SDS011;18261;53.648;9.910;2022-12-29T00:06:31;8.48;;;3.90;;
31652;SDS011;18261;53.648;9.910;2022-12-29T00:08:57;7.88;;;4.32;;
31652;SDS011;18261;53.648;9.910;2022-12-29T00:11:24;5.40;;;3.97;;
31652;SDS011;18261;53.648;9.910;2022-12-29T00:13:51;6.45;;;4.03;;
31652;SDS011;18261;53.648;9.910;2022-12-29T00:16:36;8.85;;;4.72;;
31652;SDS011;18261;53.648;9.910;2022-12-29T00:19:03;6.75;;;4.30;;
31652;SDS011;18261;53.648;9.910;2022-12-29T00:21:29;9.10;;;4.57;;
31652;SDS011;18261;53.648;9.910;2022-12-29T00:24:15;7.00;;;4.43;;
31652;SDS011;18261;53.648;9.910;2022-12-29T00:26:55;7.63;;;4.20;;
31652;SDS011;18261;53.648;9.910;2022-12-29T00:29:41;9.70;;;4.15;;
31652;SDS011;18261;53.648;9.910;2022-12-29T00:32:25;6.63;;;4.13;;
31652;SDS011;18261;53.648;9.910;2022-12-29T00:35:11;7.15;;;4.13;;
31652;SDS011;18261;53.648;9.910;2022-12-29T00:37:42;6.97;;;4.10;;
31652;SDS011;18261;53.648;9.910;2022-12-29T00:40:28;8.88;;;4.28;;
31652;SDS011;18261;53.648;9.910;2022-12-29T00:43:13;6.63;;;4.10;;
31652;SDS011;18261;53.648;9.910;2022-12-29T00:45:57;11.45;;;4.47;;
31652;SDS011;18261;53.648;9.910;2022-12-29T00:48:23;10.32;;;4.50;;
31652;SDS011;18261;53.648;9.910;2022-12-29T00:51:08;8.43;;;4.25;;
31652;SDS011;18261;53.648;9.910;2022-12-29T00:53:34;9.30;;;4.40;;
31652;SDS011;18261;53.648;9.910;2022-12-29T00:56:00;6.22;;;4.30;;
31652;SDS011;18261;53.648;9.910;2022-12-29T00:58:27;6.03;;;4.22;;
31652;SDS011;18261;53.648;9.910;2022-12-29T01:01:00;8.93;;;4.38;;
31652;SDS011;18261;53.648;9.910;2022-12-29T01:03:26;9.02;;;4.63;;
31652;SDS011;18261;53.648;9.910;2022-12-29T01:05:51;8.70;;;4.43;;
31652;SDS011;18261;53.648;9.910;2022-12-29T01:08:17;8.88;;;4.13;;
31652;SDS011;18261;53.648;9.910;2022-12-29T01:10:43;5.85;;;4.35;;
31652;SDS011;18261;53.648;9.910;2022-12-29T01:13:09;7.63;;;4.63;;
31652;SDS011;18261;53.648;9.910;2022-12-29T01:15:35;6.68;;;4.15;;
31652;SDS011;18261;53.648;9.910;2022-12-29T01:18:01;7.22;;;4.25;;
31652;SDS011;18261;53.648;9.910;2022-12-29T01:20:27;9.63;;;4.15;;
31652;SDS011;18261;53.648;9.910;2022-12-29T01:22:53;7.10;;;4.03;;
31652;SDS011;18261;53.648;9.910;2022-12-29T01:25:19;5.70;;;4.10;;
31652;SDS011;18261;53.648;9.910;2022-12-29T01:27:45;6.75;;;4.28;;
31652;SDS011;18261;53.648;9.910;2022-12-29T01:30:11;8.30;;;4.00;;
31652;SDS011;18261;53.648;9.910;2022-12-29T01:32:37;5.75;;;4.57;;
31652;SDS011;18261;53.648;9.910;2022-12-29T01:35:03;6.38;;;4.22;;
31652;SDS011;18261;53.648;9.910;2022-12-29T01:37:30;9.80;;;4.57;;
31652;SDS011;18261;53.648;9.910;2022-12-29T01:39:55;5.47;;;4.13;;
31652;SDS011;18261;53.648;9.910;2022-12-29T01:42:22;7.45;;;4.38;;
31652;SDS011;18261;53.648;9.910;2022-12-29T01:47:19;7.05;;;4.70;;
31652;SDS011;18261;53.648;9.910;2022-12-29T01:49:46;7.50;;;4.90;;
31652;SDS011;18261;53.648;9.910;2022-12-29T01:52:12;6.80;;;5.15;;
31652;SDS011;18261;53.648;9.910;2022-12-29T01:54:48;6.97;;;4.72;;
31652;SDS011;18261;53.648;9.910;2022-12-29T01:57:19;8.50;;;4.55;;
31652;SDS011;18261;53.648;9.910;2022-12-29T01:59:49;8.70;;;5.03;;
31652;SDS011;18261;53.648;9.910;2022-12-29T02:02:16;8.75;;;5.07;;
31652;SDS011;18261;53.648;9.910;2022-12-29T02:04:43;9.65;;;5.80;;
31652;SDS011;18261;53.648;9.910;2022-12-29T02:07:14;8.38;;;5.20;;
31652;SDS011;18261;53.648;9.910;2022-12-29T02:09:42;8.32;;;5.63;;
31652;SDS011;18261;53.648;9.910;2022-12-29T02:12:08;7.05;;;5.82;;
31652;SDS011;18261;53.648;9.910;2022-12-29T02:14:35;8.07;;;5.80;;
31652;SDS011;18261;53.648;9.910;2022-12-29T02:17:05;6.25;;;5.50;;
31652;SDS011;18261;53.648;9.910;2022-12-29T02:19:45;7.93;;;5.82;;
31652;SDS011;18261;53.648;9.910;2022-12-29T02:22:26;6.47;;;5.32;;
31652;SDS011;18261;53.648;9.910;2022-12-29T02:24:59;7.78;;;5.63;;
31652;SDS011;18261;53.648;9.910;2022-12-29T02:32:29;9.82;;;5.65;;
31652;SDS011;18261;53.648;9.910;2022-12-29T02:37:30;7.05;;;5.03;;
31652;SDS011;18261;53.648;9.910;2022-12-29T02:40:23;7.25;;;5.10;;
31652;SDS011;18261;53.648;9.910;2022-12-29T02:45:37;6.90;;;5.05;;
31652;SDS011;18261;53.648;9.910;2022-12-29T02:48:24;7.10;;;5.25;;
31652;SDS011;18261;53.648;9.910;2022-12-29T02:50:53;4.80;;;4.30;;
31652;SDS011;18261;53.648;9.910;2022-12-29T02:53:23;8.70;;;4.75;;
31652;SDS011;18261;53.648;9.910;2022-12-29T02:56:08;9.05;;;4.68;;
31652;SDS011;18261;53.648;9.910;2022-12-29T02:58:34;7.30;;;4.90;;
31652;SDS011;18261;53.648;9.910;2022-12-29T03:06:08;8.45;;;4.47;;
31652;SDS011;18261;53.648;9.910;2022-12-29T03:09:00;8.00;;;4.50;;
31652;SDS011;18261;53.648;9.910;2022-12-29T03:11:23;6.63;;;3.88;;
31652;SDS011;18261;53.648;9.910;2022-12-29T03:17:14;9.45;;;4.10;;
31652;SDS011;18261;53.648;9.910;2022-12-29T03:19:44;11.48;;;4.80;;
31652;SDS011;18261;53.648;9.910;2022-12-29T03:22:22;10.32;;;4.07;;
31652;SDS011;18261;53.648;9.910;2022-12-29T03:25:17;8.35;;;4.30;;
31652;SDS011;18261;53.648;9.910;2022-12-29T03:27:48;5.90;;;3.72;;
31652;SDS011;18261;53.648;9.910;2022-12-29T03:30:15;4.55;;;3.63;;
31652;SDS011;18261;53.648;9.910;2022-12-29T03:32:52;4.40;;;3.47;;
31652;SDS011;18261;53.648;9.910;2022-12-29T03:35:21;6.35;;;3.55;;
31652;SDS011;18261;53.648;9.910;2022-12-29T03:38:02;5.22;;;3.50;;
31652;SDS011;18261;53.648;9.910;2022-12-29T03:40:32;5.78;;;3.40;;
31652;SDS011;18261;53.648;9.910;2022-12-29T03:43:01;8.05;;;3.65;;
31652;SDS011;18261;53.648;9.910;2022-12-29T03:45:27;5.40;;;3.42;;
31652;SDS011;18261;53.648;9.910;2022-12-29T03:47:53;3.83;;;3.30;;
31652;SDS011;18261;53.648;9.910;2022-12-29T03:50:19;3.78;;;3.33;;
31652;SDS011;18261;53.648;9.910;2022-12-29T03:52:45;5.78;;;2.90;;
31652;SDS011;18261;53.648;9.910;2022-12-29T03:55:11;4.82;;;3.20;;
31652;SDS011;18261;53.648;9.910;2022-12-29T03:57:37;7.65;;;3.40;;
31652;SDS011;18261;53.648;9.910;2022-12-29T04:00:04;7.28;;;3.00;;
31652;SDS011;18261;53.648;9.910;2022-12-29T04:02:31;10.25;;;3.22;;
31652;SDS011;18261;53.648;9.910;2022-12-29T04:04:57;4.40;;;2.95;;
31652;SDS011;18261;53.648;9.910;2022-12-29T04:07:23;4.80;;;3.05;;
31652;SDS011;18261;53.648;9.910;2022-12-29T04:09:49;3.50;;;2.95;;
31652;SDS011;18261;53.648;9.910;2022-12-29T04:12:15;4.03;;;2.70;;
31652;SDS011;18261;53.648;9.910;2022-12-29T04:14:40;6.47;;;3.20;;
31652;SDS011;18261;53.648;9.910;2022-12-29T04:17:06;3.17;;;2.75;;
31652;SDS011;18261;53.648;9.910;2022-12-29T04:19:32;3.55;;;2.65;;
31652;SDS011;18261;53.648;9.910;2022-12-29T04:21:58;4.22;;;2.40;;
31652;SDS011;18261;53.648;9.910;2022-12-29T04:24:24;7.45;;;2.28;;
31652;SDS011;18261;53.648;9.910;2022-12-29T04:26:50;3.40;;;2.35;;
31652;SDS011;18261;53.648;9.910;2022-12-29T04:29:16;4.25;;;2.30;;
31652;SDS011;18261;53.648;9.910;2022-12-29T04:31:42;5.95;;;2.28;;
31652;SDS011;18261;53.648;9.910;2022-12-29T04:34:08;3.15;;;1.90;;
31652;SDS011;18261;53.648;9.910;2022-12-29T04:36:34;4.75;;;2.20;;
31652;SDS011;18261;53.648;9.910;2022-12-29T04:39:00;3.22;;;2.05;;
31652;SDS011;18261;53.648;9.910;2022-12-29T04:41:26;4.25;;;1.73;;
31652;SDS011;18261;53.648;9.910;2022-12-29T04:43:52;2.70;;;1.98;;
31652;SDS011;18261;53.648;9.910;2022-12-29T04:46:18;2.22;;;1.63;;
31652;SDS011;18261;53.648;9.910;2022-12-29T04:48:44;3.88;;;2.00;;
31652;SDS011;18261;53.648;9.910;2022-12-29T04:51:10;2.95;;;1.83;;
31652;SDS011;18261;53.648;9.910;2022-12-29T04:53:36;2.10;;;1.90;;
31652;SDS011;18261;53.648;9.910;2022-12-29T04:56:02;4.95;;;1.90;;
31652;SDS011;18261;53.648;9.910;2022-12-29T04:58:28;2.38;;;1.70;;
31652;SDS011;18261;53.648;9.910;2022-12-29T05:00:54;4.30;;;1.90;;
31652;SDS011;18261;53.648;9.910;2022-12-29T05:03:19;2.78;;;1.80;;
31652;SDS011;18261;53.648;9.910;2022-12-29T05:05:45;3.22;;;1.90;;
31652;SDS011;18261;53.648;9.910;2022-12-29T05:08:11;3.60;;;1.65;;
31652;SDS011;18261;53.648;9.910;2022-12-29T05:10:37;2.75;;;2.00;;
31652;SDS011;18261;53.648;9.910;2022-12-29T05:13:03;2.85;;;1.63;;
31652;SDS011;18261;53.648;9.910;2022-12-29T05:15:29;5.20;;;1.70;;
31652;SDS011;18261;53.648;9.910;2022-12-29T05:17:55;2.80;;;1.90;;
31652;SDS011;18261;53.648;9.910;2022-12-29T05:20:21;3.63;;;1.98;;
31652;SDS011;18261;53.648;9.910;2022-12-29T05:22:47;2.65;;;1.98;;
31652;SDS011;18261;53.648;9.910;2022-12-29T05:25:13;1.70;;;1.60;;
31652;SDS011;18261;53.648;9.910;2022-12-29T05:27:39;2.13;;;1.67;;
31652;SDS011;18261;53.648;9.910;2022-12-29T05:30:05;2.55;;;2.03;;
31652;SDS011;18261;53.648;9.910;2022-12-29T05:32:31;3.15;;;2.10;;
31652;SDS011;18261;53.648;9.910;2022-12-29T05:34:57;2.17;;;1.92;;
31652;SDS011;18261;53.648;9.910;2022-12-29T05:37:23;3.88;;;2.00;;
31652;SDS011;18261;53.648;9.910;2022-12-29T05:39:49;3.40;;;2.47;;
31652;SDS011;18261;53.648;9.910;2022-12-29T05:42:15;2.80;;;2.28;;
31652;SDS011;18261;53.648;9.910;2022-12-29T05:44:41;2.65;;;2.33;;
31652;SDS011;18261;53.648;9.910;2022-12-29T05:47:07;3.58;;;2.55;;
31652;SDS011;18261;53.648;9.910;2022-12-29T05:49:33;5.60;;;2.25;;
31652;SDS011;18261;53.648;9.910;2022-12-29T05:51:59;3.65;;;2.35;;
31652;SDS011;18261;53.648;9.910;2022-12-29T05:54:25;3.53;;;2.55;;
31652;SDS011;18261;53.648;9.910;2022-12-29T05:56:51;5.45;;;2.50;;
31652;SDS011;18261;53.648;9.910;2022-12-29T05:59:17;5.85;;;2.63;;
31652;SDS011;18261;53.648;9.910;2022-12-29T06:01:43;6.38;;;2.55;;
31652;SDS011;18261;53.648;9.910;2022-12-29T06:04:09;9.95;;;2.10;;
31652;SDS011;18261;53.648;9.910;2022-12-29T06:06:35;3.70;;;2.17;;
31652;SDS011;18261;53.648;9.910;2022-12-29T06:09:01;4.03;;;2.00;;
31652;SDS011;18261;53.648;9.910;2022-12-29T06:11:27;3.17;;;1.92;;
31652;SDS011;18261;53.648;9.910;2022-12-29T06:13:53;7.55;;;1.85;;
31652;SDS011;18261;53.648;9.910;2022-12-29T06:16:19;3.13;;;1.77;;
31652;SDS011;18261;53.648;9.910;2022-12-29T06:18:45;3.53;;;1.80;;
31652;SDS011;18261;53.648;9.910;2022-12-29T06:21:11;3.35;;;1.90;;
31652;SDS011;18261;53.648;9.910;2022-12-29T06:23:37;3.55;;;1.70;;
31652;SDS011;18261;53.648;9.910;2022-12-29T06:26:03;5.97;;;1.83;;
31652;SDS011;18261;53.648;9.910;2022-12-29T06:28:29;3.92;;;1.70;;
31652;SDS011;18261;53.648;9.910;2022-12-29T06:30:55;3.10;;;2.13;;
31652;SDS011;18261;53.648;9.910;2022-12-29T06:33:21;3.30;;;1.50;;
31652;SDS011;18261;53.648;9.910;2022-12-29T06:35:47;4.60;;;1.70;;
31652;SDS011;18261;53.648;9.910;2022-12-29T06:38:13;5.10;;;1.63;;
31652;SDS011;18261;53.648;9.910;2022-12-29T06:40:39;5.63;;;1.98;;
31652;SDS011;18261;53.648;9.910;2022-12-29T06:43:06;5.38;;;1.60;;
31652;SDS011;18261;53.648;9.910;2022-12-29T06:45:32;2.97;;;1.30;;
31652;SDS011;18261;53.648;9.910;2022-12-29T06:47:58;5.18;;;1.67;;
31652;SDS011;18261;53.648;9.910;2022-12-29T06:50:24;7.22;;;1.75;;
31652;SDS011;18261;53.648;9.910;2022-12-29T06:52:50;4.53;;;1.90;;
31652;SDS011;18261;53.648;9.910;2022-12-29T06:55:16;5.38;;;1.70;;
31652;SDS011;18261;53.648;9.910;2022-12-29T06:57:42;1.67;;;1.27;;
31652;SDS011;18261;53.648;9.910;2022-12-29T07:00:08;5.28;;;1.80;;
31652;SDS011;18261;53.648;9.910;2022-12-29T07:02:34;2.97;;;1.65;;
31652;SDS011;18261;53.648;9.910;2022-12-29T07:05:00;5.40;;;1.90;;
31652;SDS011;18261;53.648;9.910;2022-12-29T07:07:26;2.35;;;1.48;;
31652;SDS011;18261;53.648;9.910;2022-12-29T07:09:52;2.90;;;1.67;;
31652;SDS011;18261;53.648;9.910;2022-12-29T07:12:17;3.47;;;1.92;;
31652;SDS011;18261;53.648;9.910;2022-12-29T07:14:43;3.85;;;1.63;;
31652;SDS011;18261;53.648;9.910;2022-12-29T07:17:09;4.78;;;1.90;;
31652;SDS011;18261;53.648;9.910;2022-12-29T07:19:35;3.28;;;1.50;;
31652;SDS011;18261;53.648;9.910;2022-12-29T07:22:01;2.65;;;1.40;;
31652;SDS011;18261;53.648;9.910;2022-12-29T07:24:27;4.45;;;1.60;;
31652;SDS011;18261;53.648;9.910;2022-12-29T07:26:54;4.00;;;1.55;;
31652;SDS011;18261;53.648;9.910;2022-12-29T07:29:20;3.67;;;1.75;;
31652;SDS011;18261;53.648;9.910;2022-12-29T07:31:46;7.18;;;1.90;;
31652;SDS011;18261;53.648;9.910;2022-12-29T07:34:12;4.47;;;1.45;;
31652;SDS011;18261;53.648;9.910;2022-12-29T07:36:38;8.27;;;2.08;;
31652;SDS011;18261;53.648;9.910;2022-12-29T07:39:04;5.25;;;1.83;;
31652;SDS011;18261;53.648;9.910;2022-12-29T07:41:30;5.70;;;2.15;;
31652;SDS011;18261;53.648;9.910;2022-12-29T07:43:56;4.57;;;1.85;;
31652;SDS011;18261;53.648;9.910;2022-12-29T07:46:23;7.13;;;1.88;;
31652;SDS011;18261;53.648;9.910;2022-12-29T07:48:49;7.97;;;1.98;;
31652;SDS011;18261;53.648;9.910;2022-12-29T07:51:15;3.65;;;1.73;;
31652;SDS011;18261;53.648;9.910;2022-12-29T07:53:41;5.95;;;1.90;;
31652;SDS011;18261;53.648;9.910;2022-12-29T07:56:07;5.88;;;1.70;;
31652;SDS011;18261;53.648;9.910;2022-12-29T07:58:33;4.85;;;1.70;;
31652;SDS011;18261;53.648;9.910;2022-12-29T08:00:59;6.75;;;2.28;;
31652;SDS011;18261;53.648;9.910;2022-12-29T08:03:25;8.55;;;2.22;;
31652;SDS011;18261;53.648;9.910;2022-12-29T08:05:51;6.93;;;2.00;;
31652;SDS011;18261;53.648;9.910;2022-12-29T08:08:17;3.78;;;1.80;;
31652;SDS011;18261;53.648;9.910;2022-12-29T08:10:43;2.83;;;1.90;;
31652;SDS011;18261;53.648;9.910;2022-12-29T08:13:09;3.55;;;1.40;;
31652;SDS011;18261;53.648;9.910;2022-12-29T08:15:37;8.38;;;1.95;;
31652;SDS011;18261;53.648;9.910;2022-12-29T08:18:03;3.92;;;1.50;;
31652;SDS011;18261;53.648;9.910;2022-12-29T08:20:29;5.70;;;1.58;;
31652;SDS011;18261;53.648;9.910;2022-12-29T08:22:55;5.68;;;1.52;;
31652;SDS011;18261;53.648;9.910;2022-12-29T08:25:21;4.32;;;1.50;;
31652;SDS011;18261;53.648;9.910;2022-12-29T08:27:47;4.88;;;1.65;;
31652;SDS011;18261;53.648;9.910;2022-12-29T08:30:13;6.22;;;1.60;;
31652;SDS011;18261;53.648;9.910;2022-12-29T08:32:39;2.75;;;1.10;;
31652;SDS011;18261;53.648;9.910;2022-12-29T08:35:05;7.00;;;1.50;;
31652;SDS011;18261;53.648;9.910;2022-12-29T08:37:32;3.05;;;1.13;;
31652;SDS011;18261;53.648;9.910;2022-12-29T08:39:58;5.38;;;1.58;;
31652;SDS011;18261;53.648;9.910;2022-12-29T08:42:28;3.58;;;1.30;;
31652;SDS011;18261;53.648;9.910;2022-12-29T08:44:56;6.72;;;1.60;;
31652;SDS011;18261;53.648;9.910;2022-12-29T08:47:22;5.95;;;2.05;;
31652;SDS011;18261;53.648;9.910;2022-12-29T08:49:48;7.28;;;1.50;;
31652;SDS011;18261;53.648;9.910;2022-12-29T08:52:14;5.82;;;1.55;;
31652;SDS011;18261;53.648;9.910;2022-12-29T08:54:40;11.82;;;2.28;;
31652;SDS011;18261;53.648;9.910;2022-12-29T08:57:05;4.93;;;1.63;;
31652;SDS011;18261;53.648;9.910;2022-12-29T08:59:31;3.13;;;1.42;;
31652;SDS011;18261;53.648;9.910;2022-12-29T09:01:57;6.85;;;1.50;;
31652;SDS011;18261;53.648;9.910;2022-12-29T09:04:23;7.60;;;1.48;;
31652;SDS011;18261;53.648;9.910;2022-12-29T09:06:50;4.85;;;1.45;;
31652;SDS011;18261;53.648;9.910;2022-12-29T09:09:16;6.75;;;1.45;;
31652;SDS011;18261;53.648;9.910;2022-12-29T09:11:43;5.60;;;1.70;;
31652;SDS011;18261;53.648;9.910;2022-12-29T09:14:09;8.50;;;1.98;;
31652;SDS011;18261;53.648;9.910;2022-12-29T09:16:35;6.03;;;1.42;;
31652;SDS011;18261;53.648;9.910;2022-12-29T09:19:01;7.72;;;1.65;;
31652;SDS011;18261;53.648;9.910;2022-12-29T09:21:27;11.18;;;1.90;;
31652;SDS011;18261;53.648;9.910;2022-12-29T09:23:53;8.05;;;1.83;;
31652;SDS011;18261;53.648;9.910;2022-12-29T09:26:19;6.97;;;1.63;;
31652;SDS011;18261;53.648;9.910;2022-12-29T09:28:45;3.97;;;1.63;;
31652;SDS011;18261;53.648;9.910;2022-12-29T09:31:12;6.10;;;1.70;;
31652;SDS011;18261;53.648;9.910;2022-12-29T09:33:38;5.18;;;1.70;;
31652;SDS011;18261;53.648;9.910;2022-12-29T09:36:04;12.30;;;1.92;;
31652;SDS011;18261;53.648;9.910;2022-12-29T09:38:30;10.60;;;1.88;;
31652;SDS011;18261;53.648;9.910;2022-12-29T09:41:08;6.50;;;1.58;;
31652;SDS011;18261;53.648;9.910;2022-12-29T09:46:32;9.25;;;1.50;;
31652;SDS011;18261;53.648;9.910;2022-12-29T09:51:45;10.38;;;2.10;;
31652;SDS011;18261;53.648;9.910;2022-12-29T09:56:38;16.63;;;1.85;;
31652;SDS011;18261;53.648;9.910;2022-12-29T09:59:08;9.70;;;1.90;;
31652;SDS011;18261;53.648;9.910;2022-12-29T10:01:41;13.83;;;1.70;;
31652;SDS011;18261;53.648;9.910;2022-12-29T10:04:09;8.95;;;2.10;;
31652;SDS011;18261;53.648;9.910;2022-12-29T10:06:46;14.35;;;2.47;;
31652;SDS011;18261;53.648;9.910;2022-12-29T10:17:25;7.88;;;1.70;;
31652;SDS011;18261;53.648;9.910;2022-12-29T10:20:05;10.18;;;2.50;;
31652;SDS011;18261;53.648;9.910;2022-12-29T10:25:04;14.32;;;2.25;;
31652;SDS011;18261;53.648;9.910;2022-12-29T10:27:34;9.27;;;2.28;;
31652;SDS011;18261;53.648;9.910;2022-12-29T10:30:01;14.90;;;2.47;;
31652;SDS011;18261;53.648;9.910;2022-12-29T10:32:32;14.40;;;2.58;;
31652;SDS011;18261;53.648;9.910;2022-12-29T10:35:03;15.07;;;2.60;;
31652;SDS011;18261;53.648;9.910;2022-12-29T10:37:45;9.35;;;2.55;;
31652;SDS011;18261;53.648;9.910;2022-12-29T10:40:14;10.45;;;1.73;;
31652;SDS011;18261;53.648;9.910;2022-12-29T10:42:42;17.13;;;2.60;;
31652;SDS011;18261;53.648;9.910;2022-12-29T10:45:12;10.02;;;1.80;;
31652;SDS011;18261;53.648;9.910;2022-12-29T10:47:40;11.27;;;2.10;;
31652;SDS011;18261;53.648;9.910;2022-12-29T10:50:11;10.32;;;1.85;;
31652;SDS011;18261;53.648;9.910;2022-12-29T10:52:37;13.55;;;2.00;;
31652;SDS011;18261;53.648;9.910;2022-12-29T10:55:08;12.57;;;2.10;;
31652;SDS011;18261;53.648;9.910;2022-12-29T10:57:39;11.27;;;2.13;;
31652;SDS011;18261;53.648;9.910;2022-12-29T11:00:13;14.55;;;2.60;;
31652;SDS011;18261;53.648;9.910;2022-12-29T11:05:33;9.45;;;2.40;;
31652;SDS011;18261;53.648;9.910;2022-12-29T11:07:58;18.00;;;2.20;;
31652;SDS011;18261;53.648;9.910;2022-12-29T11:10:41;13.57;;;2.35;;
31652;SDS011;18261;53.648;9.910;2022-12-29T11:13:12;14.40;;;2.13;;
31652;SDS011;18261;53.648;9.910;2022-12-29T11:15:40;9.95;;;2.05;;
31652;SDS011;18261;53.648;9.910;2022-12-29T11:18:16;10.90;;;1.83;;
31652;SDS011;18261;53.648;9.910;2022-12-29T11:20:43;11.48;;;1.95;;
31652;SDS011;18261;53.648;9.910;2022-12-29T11:26:05;15.75;;;2.28;;
31652;SDS011;18261;53.648;9.910;2022-12-29T11:28:31;15.52;;;2.05;;
31652;SDS011;18261;53.648;9.910;2022-12-29T11:31:01;17.50;;;2.30;;
31652;SDS011;18261;53.648;9.910;2022-12-29T11:33:28;14.52;;;1.92;;
31652;SDS011;18261;53.648;9.910;2022-12-29T11:35:58;14.77;;;2.25;;
31652;SDS011;18261;53.648;9.910;2022-12-29T11:38:26;13.65;;;1.90;;
31652;SDS011;18261;53.648;9.910;2022-12-29T11:40:54;20.70;;;2.70;;
31652;SDS011;18261;53.648;9.910;2022-12-29T11:43:27;10.43;;;2.08;;
31652;SDS011;18261;53.648;9.910;2022-12-29T11:45:58;13.82;;;1.90;;
31652;SDS011;18261;53.648;9.910;2022-12-29T11:48:25;8.60;;;1.88;;
31652;SDS011;18261;53.648;9.910;2022-12-29T11:50:55;5.68;;;1.27;;
31652;SDS011;18261;53.648;9.910;2022-12-29T11:53:23;8.43;;;1.65;;
31652;SDS011;18261;53.648;9.910;2022-12-29T11:55:57;6.82;;;1.42;;
31652;SDS011;18261;53.648;9.910;2022-12-29T11:58:30;9.80;;;1.40;;
31652;SDS011;18261;53.648;9.910;2022-12-29T12:00:58;8.13;;;1.25;;
31652;SDS011;18261;53.648;9.910;2022-12-29T12:03:24;14.18;;;1.98;;
31652;SDS011;18261;53.648;9.910;2022-12-29T12:05:54;8.02;;;1.50;;
31652;SDS011;18261;53.648;9.910;2022-12-29T12:08:26;6.60;;;1.42;;
31652;SDS011;18261;53.648;9.910;2022-12-29T12:10:56;10.65;;;1.88;;
31652;SDS011;18261;53.648;9.910;2022-12-29T12:13:29;10.45;;;2.08;;
31652;SDS011;18261;53.648;9.910;2022-12-29T12:18:34;12.15;;;2.40;;
31652;SDS011;18261;53.648;9.910;2022-12-29T12:21:04;15.88;;;2.42;;
31652;SDS011;18261;53.648;9.910;2022-12-29T12:23:35;12.43;;;2.42;;
31652;SDS011;18261;53.648;9.910;2022-12-29T12:26:27;12.88;;;1.90;;
31652;SDS011;18261;53.648;9.910;2022-12-29T12:28:51;12.38;;;2.50;;
31652;SDS011;18261;53.648;9.910;2022-12-29T12:31:32;13.18;;;2.45;;
31652;SDS011;18261;53.648;9.910;2022-12-29T12:34:04;13.13;;;1.90;;
31652;SDS011;18261;53.648;9.910;2022-12-29T12:36:43;13.70;;;2.63;;
31652;SDS011;18261;53.648;9.910;2022-12-29T12:39:11;11.38;;;2.70;;
31652;SDS011;18261;53.648;9.910;2022-12-29T12:44:18;12.77;;;2.25;;
31652;SDS011;18261;53.648;9.910;2022-12-29T12:46:52;15.20;;;2.10;;
31652;SDS011;18261;53.648;9.910;2022-12-29T12:49:40;15.13;;;2.05;;
31652;SDS011;18261;53.648;9.910;2022-12-29T12:52:14;15.82;;;2.60;;
31652;SDS011;18261;53.648;9.910;2022-12-29T12:57:25;14.88;;;2.58;;
31652;SDS011;18261;53.648;9.910;2022-12-29T13:00:00;22.50;;;3.33;;
31652;SDS011;18261;53.648;9.910;2022-12-29T13:12:50;17.38;;;2.75;;
31652;SDS011;18261;53.648;9.910;2022-12-29T13:17:59;13.30;;;2.70;;
31652;SDS011;18261;53.648;9.910;2022-12-29T13:20:32;14.93;;;2.33;;
31652;SDS011;18261;53.648;9.910;2022-12-29T13:23:05;13.18;;;2.08;;
31652;SDS011;18261;53.648;9.910;2022-12-29T13:31:08;11.93;;;2.30;;
31652;SDS011;18261;53.648;9.910;2022-12-29T13:36:04;11.27;;;2.10;;
31652;SDS011;18261;53.648;9.910;2022-12-29T13:38:39;17.70;;;2.25;;
31652;SDS011;18261;53.648;9.910;2022-12-29T13:41:07;14.50;;;3.38;;
31652;SDS011;18261;53.648;9.910;2022-12-29T13:43:34;23.08;;;3.05;;
31652;SDS011;18261;53.648;9.910;2022-12-29T13:46:04;13.60;;;2.83;;
31652;SDS011;18261;53.648;9.910;2022-12-29T13:48:34;16.88;;;2.50;;
31652;SDS011;18261;53.648;9.910;2022-12-29T13:51:01;25.33;;;2.92;;
31652;SDS011;18261;53.648;9.910;2022-12-29T13:53:51;24.98;;;12.43;;
31652;SDS011;18261;53.648;9.910;2022-12-29T13:56:25;16.63;;;2.50;;
31652;SDS011;18261;53.648;9.910;2022-12-29T13:58:59;14.82;;;2.60;;
31652;SDS011;18261;53.648;9.910;2022-12-29T14:01:34;13.05;;;2.15;;
31652;SDS011;18261;53.648;9.910;2022-12-29T14:04:09;15.15;;;3.25;;
31652;SDS011;18261;53.648;9.910;2022-12-29T14:06:36;10.43;;;1.88;;
31652;SDS011;18261;53.648;9.910;2022-12-29T14:09:06;12.13;;;2.47;;
31652;SDS011;18261;53.648;9.910;2022-12-29T14:11:37;10.48;;;1.83;;
31652;SDS011;18261;53.648;9.910;2022-12-29T14:14:37;13.18;;;2.30;;
31652;SDS011;18261;53.648;9.910;2022-12-29T14:17:08;12.15;;;2.10;;
31652;SDS011;18261;53.648;9.910;2022-12-29T14:19:35;15.32;;;1.98;;
31652;SDS011;18261;53.648;9.910;2022-12-29T14:22:03;16.23;;;2.33;;
31652;SDS011;18261;53.648;9.910;2022-12-29T14:34:50;11.00;;;2.27;;
31652;SDS011;18261;53.648;9.910;2022-12-29T14:37:35;12.98;;;2.72;;
31652;SDS011;18261;53.648;9.910;2022-12-29T14:42:45;14.70;;;2.17;;
31652;SDS011;18261;53.648;9.910;2022-12-29T14:47:51;14.02;;;2.42;;
31652;SDS011;18261;53.648;9.910;2022-12-29T14:50:18;24.02;;;3.72;;
31652;SDS011;18261;53.648;9.910;2022-12-29T14:52:48;24.63;;;6.88;;
31652;SDS011;18261;53.648;9.910;2022-12-29T14:57:41;15.45;;;3.47;;
31652;SDS011;18261;53.648;9.910;2022-12-29T15:00:30;13.00;;;2.97;;
31652;SDS011;18261;53.648;9.910;2022-12-29T15:03:04;19.58;;;2.67;;
31652;SDS011;18261;53.648;9.910;2022-12-29T15:05:41;17.35;;;3.03;;
31652;SDS011;18261;53.648;9.910;2022-12-29T15:08:08;17.25;;;2.22;;
31652;SDS011;18261;53.648;9.910;2022-12-29T15:10:37;18.55;;;2.40;;
31652;SDS011;18261;53.648;9.910;2022-12-29T15:13:05;20.50;;;2.78;;
31652;SDS011;18261;53.648;9.910;2022-12-29T15:15:36;12.60;;;3.35;;
31652;SDS011;18261;53.648;9.910;2022-12-29T15:20:49;16.38;;;2.90;;
31652;SDS011;18261;53.648;9.910;2022-12-29T15:23:16;26.40;;;8.77;;
31652;SDS011;18261;53.648;9.910;2022-12-29T15:25:46;17.58;;;4.22;;
31652;SDS011;18261;53.648;9.910;2022-12-29T15:28:13;24.33;;;4.00;;
31652;SDS011;18261;53.648;9.910;2022-12-29T15:30:49;16.17;;;2.70;;
31652;SDS011;18261;53.648;9.910;2022-12-29T15:33:19;11.63;;;2.42;;
31652;SDS011;18261;53.648;9.910;2022-12-29T15:35:49;18.83;;;4.30;;
31652;SDS011;18261;53.648;9.910;2022-12-29T15:38:19;17.13;;;2.83;;
31652;SDS011;18261;53.648;9.910;2022-12-29T15:40:48;12.02;;;2.35;;
31652;SDS011;18261;53.648;9.910;2022-12-29T15:48:39;12.88;;;2.65;;
31652;SDS011;18261;53.648;9.910;2022-12-29T15:51:24;13.63;;;2.45;;
31652;SDS011;18261;53.648;9.910;2022-12-29T15:53:51;18.77;;;2.80;;
31652;SDS011;18261;53.648;9.910;2022-12-29T15:56:18;16.38;;;2.78;;
31652;SDS011;18261;53.648;9.910;2022-12-29T15:58:45;18.77;;;2.92;;
31652;SDS011;18261;53.648;9.910;2022-12-29T16:01:56;20.95;;;3.88;;
31652;SDS011;18261;53.648;9.910;2022-12-29T16:04:04;16.08;;;3.13;;
31652;SDS011;18261;53.648;9.910;2022-12-29T16:08:57;17.25;;;3.25;;
31652;SDS011;18261;53.648;9.910;2022-12-29T16:13:58;15.68;;;3.40;;
31652;SDS011;18261;53.648;9.910;2022-12-29T16:16:28;18.48;;;3.92;;
31652;SDS011;18261;53.648;9.910;2022-12-29T16:18:56;19.02;;;3.60;;
31652;SDS011;18261;53.648;9.910;2022-12-29T16:21:31;20.27;;;3.53;;
31652;SDS011;18261;53.648;9.910;2022-12-29T16:24:02;18.65;;;3.47;;
31652;SDS011;18261;53.648;9.910;2022-12-29T16:26:30;22.52;;;4.10;;
31652;SDS011;18261;53.648;9.910;2022-12-29T16:28:57;14.35;;;4.05;;
31652;SDS011;18261;53.648;9.910;2022-12-29T16:31:32;20.83;;;5.70;;
31652;SDS011;18261;53.648;9.910;2022-12-29T16:33:58;28.65;;;5.25;;
31652;SDS011;18261;53.648;9.910;2022-12-29T16:36:40;25.65;;;8.57;;
31652;SDS011;18261;53.648;9.910;2022-12-29T16:39:52;22.60;;;4.15;;
31652;SDS011;18261;53.648;9.910;2022-12-29T16:41:53;27.05;;;5.72;;